createdAt,value
2022-10-05T00:00:25.086Z,5.22
2022-10-05T00:03:22.714Z,5.37
2022-10-05T00:06:19.552Z,5.25
2022-10-05T00:09:21.531Z,5.24
2022-10-05T00:12:21.325Z,5.12
2022-10-05T00:15:20.638Z,5.04
2022-10-05T00:18:21.161Z,5.17
2022-10-05T00:21:28.870Z,5.00
2022-10-05T00:24:25.808Z,5.16
2022-10-05T00:27:37.940Z,5.13
2022-10-05T00:30:35.051Z,4.72
2022-10-05T00:33:31.961Z,4.87
2022-10-05T00:36:28.971Z,5.00
2022-10-05T00:39:26.012Z,5.03
2022-10-05T00:42:38.307Z,5.14
2022-10-05T00:45:50.798Z,5.07
2022-10-05T00:49:25.233Z,5.10
2022-10-05T00:52:43.578Z,4.83
2022-10-05T00:55:42.982Z,4.98
2022-10-05T00:58:59.124Z,5.08
2022-10-05T01:02:22.382Z,5.04
2022-10-05T01:05:55.013Z,5.09
2022-10-05T01:09:22.533Z,4.81
2022-10-05T01:12:45.748Z,4.97
2022-10-05T01:16:13.112Z,5.21
2022-10-05T01:19:56.159Z,4.85
2022-10-05T01:23:17.875Z,4.82
2022-10-05T01:26:38.863Z,4.91
2022-10-05T01:29:40.720Z,5.12
2022-10-05T01:32:59.788Z,5.01
2022-10-05T01:36:14.323Z,4.79
2022-10-05T01:39:22.321Z,4.87
2022-10-05T01:42:43.578Z,4.67
2022-10-05T01:46:02.554Z,4.49
2022-10-05T01:49:20.423Z,4.66
2022-10-05T01:52:33.057Z,4.67
2022-10-05T01:55:54.271Z,4.94
2022-10-05T01:59:32.245Z,4.56
2022-10-05T02:02:31.645Z,4.73
2022-10-05T02:05:53.239Z,4.81
2022-10-05T02:09:05.311Z,4.70
2022-10-05T02:12:11.764Z,4.93
2022-10-05T02:15:18.254Z,4.78
2022-10-05T02:18:21.372Z,4.84
2022-10-05T02:21:21.283Z,4.65
2022-10-05T02:24:24.761Z,4.95
2022-10-05T02:27:54.212Z,4.80
2022-10-05T02:31:05.350Z,4.66
2022-10-05T02:34:35.831Z,4.58
2022-10-05T02:37:54.242Z,4.81
2022-10-05T02:40:58.437Z,4.81
2022-10-05T02:44:26.857Z,4.88
2022-10-05T02:47:42.535Z,5.00
2022-10-05T02:51:08.035Z,4.96
2022-10-05T02:54:26.025Z,4.87
2022-10-05T02:57:36.006Z,4.90
2022-10-05T03:00:42.843Z,4.92
2022-10-05T03:03:57.723Z,4.98
2022-10-05T03:07:23.262Z,4.93
2022-10-05T03:10:54.803Z,4.88
2022-10-05T03:14:26.897Z,5.02
2022-10-05T03:17:30.939Z,5.25
2022-10-05T03:20:46.755Z,5.05
2022-10-05T03:24:23.142Z,5.24
2022-10-05T03:27:55.383Z,5.18
2022-10-05T03:31:20.821Z,5.21
2022-10-05T03:34:41.347Z,5.22
2022-10-05T03:37:59.145Z,5.20
2022-10-05T03:41:21.720Z,5.05
2022-10-05T03:45:08.632Z,5.10
2022-10-05T03:48:15.566Z,5.13
2022-10-05T03:51:19.283Z,5.12
2022-10-05T03:54:37.760Z,5.30
2022-10-05T03:57:38.780Z,5.21
2022-10-05T04:00:38.897Z,5.19
2022-10-05T04:03:48.571Z,5.16
2022-10-05T04:06:51.356Z,5.39
2022-10-05T04:09:53.021Z,5.09
2022-10-05T04:13:44.683Z,5.09
2022-10-05T04:17:06.679Z,5.15
2022-10-05T04:20:48.936Z,5.01
2022-10-05T04:24:17.989Z,5.08
2022-10-05T04:27:32.211Z,4.98
2022-10-05T04:30:33.648Z,4.92
2022-10-05T04:33:32.109Z,4.91
2022-10-05T04:36:49.237Z,4.86
2022-10-05T04:40:23.973Z,5.05
2022-10-05T04:44:05.297Z,4.95
2022-10-05T04:47:51.059Z,5.11
2022-10-05T04:51:29.622Z,4.92
2022-10-05T04:55:04.383Z,4.75
2022-10-05T04:58:18.323Z,4.79
2022-10-05T05:01:55.645Z,4.86
2022-10-05T05:05:02.367Z,4.90
2022-10-05T05:08:28.012Z,4.95
2022-10-05T05:11:53.705Z,5.08
2022-10-05T05:15:14.397Z,4.96
2022-10-05T05:18:41.673Z,4.79
2022-10-05T05:22:04.135Z,4.84
2022-10-05T05:25:51.667Z,4.66
2022-10-05T05:29:05.520Z,4.77
2022-10-05T05:32:38.953Z,4.79
2022-10-05T05:36:29.771Z,4.82
2022-10-05T05:39:36.675Z,4.79
2022-10-05T05:43:18.299Z,4.52
2022-10-05T05:47:01.896Z,4.82
2022-10-05T05:50:30.414Z,5.19
2022-10-05T05:53:40.830Z,4.93
2022-10-05T05:56:51.843Z,5.03
2022-10-05T06:00:14.716Z,5.09
2022-10-05T06:03:16.038Z,5.06
2022-10-05T06:06:25.521Z,5.20
2022-10-05T06:09:47.142Z,5.20
2022-10-05T06:12:47.687Z,5.40
2022-10-05T06:16:01.925Z,5.87
2022-10-05T06:19:18.907Z,6.06
2022-10-05T06:22:27.968Z,6.14
2022-10-05T06:25:58.708Z,6.34
2022-10-05T06:29:03.672Z,6.64
2022-10-05T06:32:20.835Z,6.63
2022-10-05T06:36:02.255Z,7.03
2022-10-05T06:39:15.624Z,7.18
2022-10-05T06:42:56.918Z,7.09
2022-10-05T06:46:55.721Z,7.24
2022-10-05T06:50:12.949Z,7.37
2022-10-05T06:53:35.389Z,7.46
2022-10-05T06:56:40.525Z,7.60
2022-10-05T07:00:01.960Z,7.85
2022-10-05T07:03:35.724Z,7.97
2022-10-05T07:07:07.198Z,8.03
2022-10-05T07:10:29.844Z,8.06
2022-10-05T07:14:13.444Z,8.09
2022-10-05T07:17:51.129Z,8.06
2022-10-05T07:21:23.792Z,8.01
2022-10-05T07:24:42.453Z,8.21
2022-10-05T07:28:12.792Z,8.04
2022-10-05T07:31:24.336Z,8.02
2022-10-05T07:34:39.144Z,8.18
2022-10-05T07:38:00.099Z,8.26
2022-10-05T07:41:10.977Z,8.45
2022-10-05T07:44:19.530Z,8.52
2022-10-05T07:47:39.313Z,8.61
2022-10-05T07:50:49.330Z,8.79
2022-10-05T07:54:03.906Z,9.05
2022-10-05T07:57:48.018Z,9.55
2022-10-05T08:01:21.992Z,9.61
2022-10-05T08:04:31.560Z,9.65
2022-10-05T08:07:32.751Z,9.69
2022-10-05T08:10:51.939Z,9.64
2022-10-05T08:14:02.228Z,9.88
2022-10-05T08:17:08.861Z,10.25
2022-10-05T08:20:25.413Z,10.37
2022-10-05T08:23:58.238Z,10.35
2022-10-05T08:27:46.847Z,10.21
2022-10-05T08:31:23.310Z,10.69
2022-10-05T08:34:28.456Z,11.02
2022-10-05T08:37:32.233Z,10.77
2022-10-05T08:41:28.929Z,11.13
2022-10-05T08:45:44.464Z,11.18
2022-10-05T08:49:14.838Z,11.33
2022-10-05T08:52:31.467Z,10.83
2022-10-05T08:56:19.876Z,11.67
2022-10-05T08:59:44.906Z,11.23
2022-10-05T09:03:17.549Z,11.46
2022-10-05T09:06:58.856Z,11.38
2022-10-05T09:10:14.528Z,11.46
2022-10-05T09:13:38.598Z,11.28
2022-10-05T09:16:54.284Z,11.45
2022-10-05T09:20:30.633Z,11.75
2022-10-05T09:23:40.311Z,11.59
2022-10-05T09:27:00.436Z,11.57
2022-10-05T09:30:25.293Z,11.84
2022-10-05T09:33:53.139Z,12.09
2022-10-05T09:37:13.824Z,12.41
2022-10-05T09:40:47.605Z,13.28
2022-10-05T09:44:36.283Z,12.64
2022-10-05T09:48:23.756Z,13.02
2022-10-05T09:52:03.802Z,12.33
2022-10-05T09:55:21.964Z,13.25
2022-10-05T09:59:06.476Z,13.61
2022-10-05T10:02:20.530Z,13.64
2022-10-05T10:06:06.344Z,13.40
2022-10-05T10:09:28.277Z,13.20
2022-10-05T10:13:28.507Z,13.08
2022-10-05T10:17:02.612Z,13.54
2022-10-05T10:20:19.762Z,13.23
2022-10-05T10:23:47.417Z,13.91
2022-10-05T10:27:16.341Z,13.56
2022-10-05T10:30:36.411Z,13.89
2022-10-05T10:34:05.986Z,14.09
2022-10-05T10:37:24.153Z,14.08
2022-10-05T10:40:51.446Z,13.97
2022-10-05T10:44:22.792Z,13.55
2022-10-05T10:47:44.145Z,13.64
2022-10-05T10:51:10.778Z,13.77
2022-10-05T10:54:31.507Z,13.57
2022-10-05T10:58:16.388Z,13.50
2022-10-05T11:01:41.852Z,13.94
2022-10-05T11:05:19.401Z,14.56
2022-10-05T11:08:43.678Z,14.35
2022-10-05T11:11:56.121Z,14.89
2022-10-05T11:14:58.627Z,14.16
2022-10-05T11:18:02.800Z,14.54
2022-10-05T11:21:26.117Z,14.54
2022-10-05T11:24:56.830Z,14.62
2022-10-05T11:28:37.986Z,14.44
2022-10-05T11:32:56.651Z,14.89
2022-10-05T11:36:25.832Z,14.81
2022-10-05T11:39:37.067Z,14.84
2022-10-05T11:43:32.301Z,15.54
2022-10-05T11:47:00.319Z,16.09
2022-10-05T11:50:32.424Z,15.96
2022-10-05T11:54:07.904Z,15.88
2022-10-05T11:57:24.049Z,15.49
2022-10-05T12:00:36.187Z,15.82
2022-10-05T12:03:38.350Z,15.64
2022-10-05T12:07:04.683Z,16.06
2022-10-05T12:10:42.948Z,15.40
2022-10-05T12:14:20.229Z,15.83
2022-10-05T12:17:42.450Z,15.68
2022-10-05T12:21:22.911Z,15.32
2022-10-05T12:24:28.604Z,15.45
2022-10-05T12:27:28.175Z,15.59
2022-10-05T12:30:58.494Z,15.58
2022-10-05T12:34:26.994Z,15.91
2022-10-05T12:38:11.463Z,15.84
2022-10-05T12:41:28.738Z,15.91
2022-10-05T12:45:22.587Z,16.11
2022-10-05T12:48:37.596Z,15.99
2022-10-05T12:52:14.912Z,16.19
2022-10-05T12:55:26.150Z,16.25
2022-10-05T12:58:47.108Z,16.20
2022-10-05T13:01:58.826Z,16.14
2022-10-05T13:05:03.567Z,16.29
2022-10-05T13:08:35.343Z,16.32
2022-10-05T13:11:51.640Z,16.43
2022-10-05T13:15:10.454Z,16.60
2022-10-05T13:18:25.353Z,16.66
2022-10-05T13:22:01.473Z,16.71
2022-10-05T13:25:49.147Z,16.85
2022-10-05T13:29:00.415Z,17.01
2022-10-05T13:32:12.566Z,16.86
2022-10-05T13:35:24.629Z,16.96
2022-10-05T13:38:36.963Z,17.47
2022-10-05T13:42:13.185Z,17.10
2022-10-05T13:45:21.299Z,16.83
2022-10-05T13:49:14.650Z,16.98
2022-10-05T13:52:30.467Z,16.72
2022-10-05T13:55:54.411Z,16.91
2022-10-05T13:59:12.254Z,16.97
2022-10-05T14:02:16.607Z,17.06
2022-10-05T14:05:27.020Z,17.07
2022-10-05T14:08:30.054Z,16.72
2022-10-05T14:11:36.596Z,17.13
2022-10-05T14:14:51.888Z,17.16
2022-10-05T14:17:51.219Z,16.64
2022-10-05T14:21:08.513Z,16.91
2022-10-05T14:24:46.635Z,16.98
2022-10-05T14:28:43.542Z,17.15
2022-10-05T14:32:14.874Z,17.50
2022-10-05T14:35:17.118Z,17.29
2022-10-05T14:38:35.532Z,17.21
2022-10-05T14:41:37.634Z,16.96
2022-10-05T14:44:34.558Z,16.86
2022-10-05T14:47:32.080Z,16.77
2022-10-05T14:50:31.354Z,16.56
2022-10-05T14:53:43.627Z,16.50
2022-10-05T14:56:51.088Z,16.51
2022-10-05T14:59:50.964Z,16.72
2022-10-05T15:03:27.290Z,16.27
2022-10-05T15:07:04.200Z,16.22
2022-10-05T15:10:29.439Z,16.29
2022-10-05T15:13:36.800Z,16.30
2022-10-05T15:16:39.219Z,16.07
2022-10-05T15:20:06.202Z,16.13
2022-10-05T15:23:40.079Z,16.21
2022-10-05T15:27:01.021Z,16.08
2022-10-05T15:30:18.397Z,16.01
2022-10-05T15:33:37.301Z,16.18
2022-10-05T15:36:47.898Z,16.14
2022-10-05T15:39:58.218Z,16.28
2022-10-05T15:43:11.844Z,16.10
2022-10-05T15:46:37.988Z,16.04
2022-10-05T15:50:09.964Z,15.96
2022-10-05T15:53:26.017Z,16.00
2022-10-05T15:56:38.817Z,15.99
2022-10-05T15:59:58.532Z,16.03
2022-10-05T16:03:26.281Z,15.88
2022-10-05T16:07:01.278Z,15.77
2022-10-05T16:10:19.778Z,15.59
2022-10-05T16:13:41.400Z,15.49
2022-10-05T16:16:59.523Z,15.41
2022-10-05T16:20:28.873Z,15.43
2022-10-05T16:24:00.174Z,15.29
2022-10-05T16:27:10.435Z,15.38
2022-10-05T16:30:18.244Z,15.40
2022-10-05T16:33:29.115Z,15.38
2022-10-05T16:37:02.310Z,15.05
2022-10-05T16:40:20.338Z,15.07
2022-10-05T16:43:51.809Z,15.08
2022-10-05T16:47:04.124Z,14.95
2022-10-05T16:50:15.873Z,15.17
2022-10-05T16:53:24.808Z,15.03
2022-10-05T16:56:30.096Z,14.84
2022-10-05T17:00:00.682Z,14.98
2022-10-05T17:03:27.454Z,14.88
2022-10-05T17:07:03.306Z,14.60
2022-10-05T17:10:16.253Z,14.64
2022-10-05T17:13:53.637Z,14.28
2022-10-05T17:17:48.979Z,14.22
2022-10-05T17:21:22.302Z,14.49
2022-10-05T17:24:29.962Z,14.21
2022-10-05T17:27:51.021Z,14.30
2022-10-05T17:30:58.592Z,14.13
2022-10-05T17:34:13.458Z,14.05
2022-10-05T17:37:26.856Z,13.92
2022-10-05T17:40:29.529Z,14.03
2022-10-05T17:43:30.738Z,14.24
2022-10-05T17:46:48.250Z,14.32
2022-10-05T17:50:14.231Z,14.21
2022-10-05T17:53:53.963Z,14.44
2022-10-05T17:56:50.676Z,14.52
2022-10-05T18:00:00.351Z,14.34
2022-10-05T18:02:58.238Z,14.36
2022-10-05T18:06:38.337Z,14.47
2022-10-05T18:09:37.635Z,14.40
2022-10-05T18:13:20.146Z,14.59
2022-10-05T18:17:02.345Z,14.28
2022-10-05T18:20:32.357Z,14.38
2022-10-05T18:23:35.870Z,14.28
2022-10-05T18:27:26.413Z,14.35
2022-10-05T18:30:31.024Z,14.13
2022-10-05T18:33:42.889Z,14.07
2022-10-05T18:37:03.877Z,14.11
2022-10-05T18:40:30.098Z,13.79
2022-10-05T18:43:47.016Z,14.04
2022-10-05T18:47:29.456Z,13.83
2022-10-05T18:50:26.163Z,13.98
2022-10-05T18:54:05.572Z,13.48
2022-10-05T18:57:32.977Z,13.55
2022-10-05T19:01:19.780Z,13.75
2022-10-05T19:05:46.915Z,13.47
2022-10-05T19:09:21.556Z,13.45
2022-10-05T19:12:44.193Z,13.34
2022-10-05T19:16:14.137Z,13.19
2022-10-05T19:19:51.065Z,13.27
2022-10-05T19:23:12.521Z,13.15
2022-10-05T19:26:15.608Z,13.03
2022-10-05T19:30:16.352Z,12.83
2022-10-05T19:34:01.890Z,12.68
2022-10-05T19:37:42.313Z,12.60
2022-10-05T19:40:45.225Z,12.65
2022-10-05T19:44:07.385Z,12.53
2022-10-05T19:47:41.140Z,12.66
2022-10-05T19:50:39.790Z,12.72
2022-10-05T19:53:44.208Z,12.64
2022-10-05T19:57:02.833Z,12.51
2022-10-05T20:00:00.072Z,12.48
2022-10-05T20:03:16.900Z,12.52
2022-10-05T20:06:13.895Z,12.97
2022-10-05T20:09:21.739Z,12.98
2022-10-05T20:12:22.503Z,13.08
2022-10-05T20:15:43.291Z,13.01
2022-10-05T20:19:01.483Z,12.99
2022-10-05T20:22:00.403Z,13.23
2022-10-05T20:25:02.525Z,13.14
2022-10-05T20:27:59.507Z,13.06
2022-10-05T20:30:56.439Z,12.92
2022-10-05T20:33:53.281Z,12.88
2022-10-05T20:36:50.940Z,12.84
2022-10-05T20:39:48.011Z,12.66
2022-10-05T20:42:44.879Z,12.63
2022-10-05T20:45:43.349Z,12.63
2022-10-05T20:48:40.173Z,12.72
2022-10-05T20:51:38.784Z,12.56
2022-10-05T20:54:37.645Z,12.55
2022-10-05T20:57:35.138Z,12.44
2022-10-05T21:00:51.970Z,12.57
2022-10-05T21:03:50.628Z,12.43
2022-10-05T21:06:47.639Z,12.50
2022-10-05T21:09:46.538Z,12.46
2022-10-05T21:12:43.719Z,12.44
2022-10-05T21:15:40.853Z,12.91
2022-10-05T21:18:38.464Z,12.75
2022-10-05T21:21:36.733Z,12.91
2022-10-05T21:24:35.944Z,13.04
2022-10-05T21:27:32.775Z,13.09
2022-10-05T21:30:29.597Z,13.08
2022-10-05T21:33:26.901Z,13.11
2022-10-05T21:36:24.839Z,13.17
2022-10-05T21:39:21.959Z,13.17
2022-10-05T21:42:18.767Z,13.09
2022-10-05T21:45:15.677Z,13.09
2022-10-05T21:48:14.865Z,13.17
2022-10-05T21:51:16.605Z,13.15
2022-10-05T21:54:18.967Z,13.05
2022-10-05T21:57:15.948Z,13.30
2022-10-05T22:00:16.332Z,13.37
2022-10-05T22:03:13.244Z,13.32
2022-10-05T22:06:10.382Z,13.27
2022-10-05T22:09:07.286Z,13.42
2022-10-05T22:12:05.456Z,13.38
2022-10-05T22:15:03.008Z,13.47
2022-10-05T22:18:00.065Z,13.50
2022-10-05T22:20:56.938Z,13.49
2022-10-05T22:23:53.819Z,13.49
2022-10-05T22:26:51.582Z,13.34
2022-10-05T22:29:48.961Z,13.27
2022-10-05T22:32:45.864Z,13.31
2022-10-05T22:35:42.892Z,13.33
2022-10-05T22:38:39.851Z,13.26
2022-10-05T22:41:36.677Z,13.24
2022-10-05T22:44:34.737Z,13.19
2022-10-05T22:47:31.748Z,13.18
2022-10-05T22:50:28.617Z,13.01
2022-10-05T22:53:25.469Z,12.88
2022-10-05T22:56:22.357Z,12.79
2022-10-05T22:59:19.212Z,12.82
2022-10-05T23:02:17.931Z,12.74
2022-10-05T23:05:17.049Z,12.62
2022-10-05T23:08:13.874Z,12.52
2022-10-05T23:11:22.572Z,12.34
2022-10-05T23:14:19.900Z,12.32
2022-10-05T23:17:21.070Z,12.35
2022-10-05T23:20:18.067Z,12.27
2022-10-05T23:23:14.870Z,12.18
2022-10-05T23:26:12.143Z,12.08
2022-10-05T23:29:09.950Z,12.25
2022-10-05T23:32:07.932Z,12.36
2022-10-05T23:35:05.747Z,12.47
2022-10-05T23:38:02.573Z,12.53
2022-10-05T23:40:59.846Z,12.55
2022-10-05T23:43:56.778Z,12.63
2022-10-05T23:46:53.599Z,12.74
2022-10-05T23:49:50.449Z,12.76
2022-10-05T23:52:47.314Z,12.78
2022-10-05T23:55:44.471Z,12.82
2022-10-05T23:58:41.486Z,12.91
